Time;durP1;ratioP1;P1;durP2;ratioP2;P2;SDS_P1;SDS_P2;PMS_P1;PMS_P2;Temp;Humidity;BMP_temperature;BMP_pressure;BME280_temperature;BME280_humidity;BME280_pressure;Samples;Min_cycle;Max_cycle;Signal;HPM_P1;HPM_P2
2023/08/17 00:01:51;;;;;;;0.40;0.40;;;13.20;99.90;;;;;;5073294;28;20235;-72
2023/08/17 00:04:17;;;;;;;0.40;0.40;;;13.20;99.90;;;;;;5073541;28;20699;-70
2023/08/17 00:06:48;;;;;;;0.40;0.40;;;13.20;99.90;;;;;;5073175;28;20189;-71
2023/08/17 00:09:14;;;;;;;0.40;0.40;;;13.20;99.90;;;;;;5072002;28;20636;-72
2023/08/17 00:12:03;;;;;;;0.40;0.40;;;13.20;99.90;;;;;;5072662;28;20208;-72
2023/08/17 00:14:30;;;;;;;0.47;0.47;;;13.20;99.90;;;;;;5063022;28;20223;-77
2023/08/17 00:16:59;;;;;;;0.40;0.40;;;13.20;99.90;;;;;;5087948;28;20221;-76
2023/08/17 00:20:14;;;;;;;;;;;;;;;;;;;;;
2023/08/17 00:23:04;;;;;;;0.40;0.40;;;13.10;99.90;;;;;;5052922;28;20569;-76
2023/08/17 00:25:39;;;;;;;0.40;0.40;;;13.10;99.90;;;;;;5063814;28;20204;-76
2023/08/17 00:28:16;;;;;;;0.40;0.40;;;13.10;99.90;;;;;;5072532;28;20655;-76
2023/08/17 00:30:45;;;;;;;0.85;0.70;;;13.00;99.90;;;;;;5071417;28;20651;-77
2023/08/17 00:33:16;;;;;;;0.70;0.70;;;13.00;99.90;;;;;;5071988;28;20212;-76
2023/08/17 00:35:45;;;;;;;0.50;0.50;;;12.90;99.90;;;;;;5071231;28;20207;-76
2023/08/17 00:38:14;;;;;;;0.40;0.40;;;12.80;99.90;;;;;;5072532;28;20191;-76
2023/08/17 00:40:43;;;;;;;0.40;0.40;;;12.70;99.90;;;;;;5072094;28;20671;-76
2023/08/17 00:43:17;;;;;;;0.50;0.50;;;12.70;99.90;;;;;;5087585;28;20616;-76
2023/08/17 00:45:53;;;;;;;0.40;0.40;;;12.70;99.90;;;;;;5072558;28;20195;-75
2023/08/17 00:48:28;;;;;;;0.60;0.60;;;12.70;99.90;;;;;;5071817;28;20200;-75
2023/08/17 00:50:59;;;;;;;0.75;0.75;;;12.70;99.90;;;;;;5070634;28;20249;-77
2023/08/17 00:53:30;;;;;;;0.50;0.50;;;12.80;99.90;;;;;;5071773;28;20192;-75
2023/08/17 00:55:56;;;;;;;0.50;0.50;;;12.90;99.90;;;;;;5087510;28;20193;-75
2023/08/17 00:58:24;;;;;;;0.40;0.40;;;12.90;99.90;;;;;;5071516;28;20192;-75
2023/08/17 01:00:53;;;;;;;0.60;0.60;;;13.00;99.90;;;;;;5072213;28;20212;-71
2023/08/17 01:05:50;;;;;;;0.47;0.47;;;13.20;99.90;;;;;;5027040;28;20226;-74
2023/08/17 01:08:16;;;;;;;0.40;0.40;;;13.20;99.90;;;;;;5031367;28;20202;-74
2023/08/17 01:11:01;;;;;;;0.40;0.40;;;13.30;99.90;;;;;;5031180;28;20361;-74
2023/08/17 01:14:15;;;;;;;0.40;0.40;;;13.40;99.90;;;;;;5031429;28;20193;-74
2023/08/17 01:16:52;;;;;;;0.38;0.38;;;13.40;99.90;;;;;;4995943;28;20206;-74
2023/08/17 01:19:28;;;;;;;0.40;0.40;;;13.50;99.90;;;;;;5013445;28;20197;-73
2023/08/17 01:22:14;;;;;;;0.40;0.40;;;13.50;99.90;;;;;;5030875;28;20206;-74
2023/08/17 01:24:40;;;;;;;0.32;0.32;;;13.60;99.90;;;;;;5029691;28;20194;-74
2023/08/17 01:27:06;;;;;;;0.40;0.40;;;13.60;99.90;;;;;;5031152;28;20198;-74
2023/08/17 01:29:31;;;;;;;0.40;0.40;;;13.60;99.90;;;;;;5029646;28;20563;-74
2023/08/17 01:32:09;;;;;;;0.40;0.40;;;13.70;99.90;;;;;;5029549;28;20217;-74
2023/08/17 01:34:43;;;;;;;0.40;0.40;;;13.80;99.90;;;;;;5029725;28;20198;-75
2023/08/17 01:37:11;;;;;;;0.60;0.60;;;13.80;99.90;;;;;;5031156;28;20606;-74
2023/08/17 01:39:40;;;;;;;0.50;0.50;;;13.80;99.90;;;;;;5030900;28;20214;-74
2023/08/17 01:42:07;;;;;;;0.68;0.47;;;13.80;99.90;;;;;;5031075;28;20217;-74
2023/08/17 01:44:33;;;;;;;0.52;0.52;;;13.90;99.90;;;;;;5029494;28;20660;-74
2023/08/17 01:46:59;;;;;;;0.40;0.40;;;13.90;99.90;;;;;;5030716;28;20218;-74
2023/08/17 01:49:25;;;;;;;0.40;0.40;;;13.90;99.90;;;;;;5030834;28;20649;-74
2023/08/17 01:51:50;;;;;;;0.60;0.60;;;13.90;99.90;;;;;;5030910;28;20738;-74
2023/08/17 01:54:16;;;;;;;0.40;0.40;;;14.00;99.90;;;;;;5030889;28;20200;-74
2023/08/17 01:56:42;;;;;;;0.43;0.43;;;14.00;99.90;;;;;;5030927;28;20186;-74
2023/08/17 01:59:07;;;;;;;0.38;0.38;;;14.10;99.90;;;;;;5013242;28;20325;-74
2023/08/17 02:01:33;;;;;;;0.43;0.43;;;14.10;99.90;;;;;;5030756;28;20201;-74
2023/08/17 02:04:02;;;;;;;0.40;0.40;;;14.10;99.90;;;;;;5034902;28;20230;-74
2023/08/17 02:06:28;;;;;;;0.63;0.63;;;14.20;99.90;;;;;;5050548;28;20694;-74
2023/08/17 02:08:54;;;;;;;0.40;0.40;;;14.20;99.90;;;;;;5049441;28;20316;-74
2023/08/17 02:11:20;;;;;;;0.30;0.30;;;14.20;99.90;;;;;;5054310;28;20272;-74
2023/08/17 02:13:46;;;;;;;0.40;0.40;;;14.20;99.90;;;;;;5054513;28;20198;-72
2023/08/17 02:16:11;;;;;;;0.43;0.43;;;14.30;99.90;;;;;;5054515;28;20290;-73
2023/08/17 02:18:37;;;;;;;0.30;0.30;;;14.30;99.90;;;;;;5052795;28;20288;-72
2023/08/17 02:21:03;;;;;;;1.65;1.27;;;14.40;99.90;;;;;;5054157;28;20229;-72
2023/08/17 02:23:29;;;;;;;1.70;0.60;;;14.40;99.90;;;;;;5054107;28;20190;-73
2023/08/17 02:25:54;;;;;;;0.60;0.60;;;14.40;99.90;;;;;;5054934;28;20706;-72
2023/08/17 02:28:20;;;;;;;0.40;0.40;;;14.40;99.90;;;;;;5054601;28;20204;-73
2023/08/17 02:30:47;;;;;;;0.40;0.40;;;14.40;99.90;;;;;;5054649;28;20185;-72
2023/08/17 02:33:13;;;;;;;0.63;0.52;;;14.40;99.90;;;;;;5054781;28;20205;-72
2023/08/17 02:35:39;;;;;;;0.40;0.40;;;14.40;99.90;;;;;;5053489;28;20263;-71
2023/08/17 02:38:04;;;;;;;0.40;0.40;;;14.40;99.90;;;;;;5054636;28;20285;-72
2023/08/17 02:40:30;;;;;;;0.38;0.38;;;14.40;99.90;;;;;;5053059;28;20197;-72
2023/08/17 02:42:56;;;;;;;0.38;0.38;;;14.40;99.90;;;;;;5055052;28;20272;-72
2023/08/17 02:45:22;;;;;;;0.40;0.40;;;14.40;99.90;;;;;;5053996;28;20194;-72
2023/08/17 02:47:48;;;;;;;0.40;0.40;;;14.40;99.90;;;;;;5052822;28;20208;-72
2023/08/17 02:50:13;;;;;;;0.40;0.40;;;14.50;99.90;;;;;;5052777;28;20201;-72
2023/08/17 02:52:39;;;;;;;0.57;0.52;;;14.50;99.90;;;;;;5054252;28;20288;-72
2023/08/17 02:55:05;;;;;;;0.45;0.45;;;14.50;99.90;;;;;;5054191;28;20331;-73
2023/08/17 02:57:31;;;;;;;0.75;0.47;;;14.40;99.90;;;;;;5054263;28;20193;-73
2023/08/17 02:59:57;;;;;;;0.30;0.30;;;14.40;99.90;;;;;;5054295;28;20194;-72
2023/08/17 03:02:22;;;;;;;0.40;0.40;;;14.40;99.90;;;;;;5025189;28;20491;-73
2023/08/17 03:04:48;;;;;;;0.30;0.30;;;14.30;99.90;;;;;;5033926;28;20319;-72
2023/08/17 03:07:14;;;;;;;0.30;0.30;;;14.30;99.90;;;;;;5052811;28;20228;-72
2023/08/17 03:09:39;;;;;;;0.38;0.38;;;14.30;99.90;;;;;;5036162;28;20208;-72
2023/08/17 03:12:05;;;;;;;0.40;0.40;;;14.20;99.90;;;;;;5035803;28;20216;-73
2023/08/17 03:14:31;;;;;;;0.75;0.75;;;14.20;99.90;;;;;;5053919;28;20192;-72
2023/08/17 03:16:56;;;;;;;0.40;0.40;;;14.20;99.90;;;;;;5053764;28;20194;-72
2023/08/17 03:19:22;;;;;;;0.60;0.60;;;14.20;99.90;;;;;;5053562;28;20200;-72
2023/08/17 03:21:48;;;;;;;0.50;0.50;;;14.20;99.90;;;;;;5052385;28;20283;-73
2023/08/17 03:24:13;;;;;;;0.50;0.50;;;14.20;99.90;;;;;;5035785;28;20668;-75
2023/08/17 03:26:39;;;;;;;0.40;0.40;;;14.20;99.90;;;;;;5052001;28;20292;-75
2023/08/17 03:29:05;;;;;;;0.55;0.55;;;14.20;99.90;;;;;;5035053;28;20198;-75
2023/08/17 03:31:31;;;;;;;0.30;0.30;;;14.30;99.90;;;;;;5052856;28;20208;-74
2023/08/17 03:33:56;;;;;;;0.50;0.50;;;14.20;99.90;;;;;;5052375;28;20204;-74
2023/08/17 03:36:22;;;;;;;0.50;0.50;;;14.30;99.90;;;;;;5053374;28;20742;-75
2023/08/17 03:38:48;;;;;;;0.35;0.35;;;14.30;99.90;;;;;;5053289;28;20710;-74
2023/08/17 03:41:14;;;;;;;0.77;0.60;;;14.40;99.90;;;;;;5052934;28;20415;-74
2023/08/17 03:43:39;;;;;;;0.73;0.60;;;14.40;99.90;;;;;;5053401;28;20235;-74
2023/08/17 03:46:05;;;;;;;0.50;0.50;;;14.40;99.90;;;;;;5035563;28;20198;-73
2023/08/17 03:48:31;;;;;;;0.40;0.40;;;14.40;99.90;;;;;;5052379;28;20647;-74
2023/08/17 03:50:57;;;;;;;0.30;0.30;;;14.40;99.90;;;;;;5052758;28;20193;-73
2023/08/17 03:53:22;;;;;;;0.40;0.40;;;14.50;99.90;;;;;;5053657;28;20201;-71
2023/08/17 03:55:49;;;;;;;0.30;0.30;;;14.40;99.90;;;;;;5052173;28;20190;-70
2023/08/17 03:58:16;;;;;;;0.40;0.40;;;14.50;99.90;;;;;;5053123;28;20754;-71
2023/08/17 04:00:42;;;;;;;0.40;0.40;;;14.50;99.90;;;;;;5052996;28;20194;-70
2023/08/17 04:03:08;;;;;;;1.55;0.70;;;14.50;99.90;;;;;;5068575;28;20205;-70
2023/08/17 04:05:34;;;;;;;0.50;0.50;;;14.50;99.90;;;;;;5072385;28;20312;-70
2023/08/17 04:08:04;;;;;;;0.40;0.40;;;14.60;99.90;;;;;;5072624;28;20196;-71
2023/08/17 04:10:30;;;;;;;0.45;0.45;;;14.60;99.90;;;;;;5072342;28;20254;-70
2023/08/17 04:12:58;;;;;;;0.30;0.30;;;14.60;99.90;;;;;;5072299;28;20204;-70
2023/08/17 04:15:24;;;;;;;0.40;0.40;;;14.60;99.90;;;;;;5072254;28;20197;-70
2023/08/17 04:17:50;;;;;;;0.73;0.73;;;14.60;99.90;;;;;;5072464;28;20197;-70
2023/08/17 04:20:16;;;;;;;0.50;0.50;;;14.60;99.90;;;;;;5051035;28;20204;-70
2023/08/17 04:22:41;;;;;;;0.50;0.50;;;14.60;99.90;;;;;;5052594;28;20272;-71
2023/08/17 04:25:07;;;;;;;0.60;0.60;;;14.60;99.90;;;;;;5052510;28;20610;-70
2023/08/17 04:27:33;;;;;;;0.40;0.40;;;14.70;99.90;;;;;;5052433;28;20197;-71
2023/08/17 04:30:01;;;;;;;0.60;0.60;;;14.70;99.90;;;;;;5052230;28;20189;-75
2023/08/17 04:32:26;;;;;;;0.40;0.40;;;14.70;99.90;;;;;;5034007;28;20684;-72
2023/08/17 04:34:52;;;;;;;0.40;0.40;;;14.70;99.90;;;;;;5052376;28;20220;-72
2023/08/17 04:37:18;;;;;;;0.30;0.30;;;14.70;99.90;;;;;;5050211;28;20266;-72
2023/08/17 04:39:44;;;;;;;0.40;0.40;;;14.70;99.90;;;;;;5034303;28;20197;-71
2023/08/17 04:42:10;;;;;;;0.43;0.43;;;14.70;99.90;;;;;;5051782;28;20660;-71
2023/08/17 04:44:36;;;;;;;0.30;0.30;;;14.70;99.90;;;;;;5052206;28;20200;-71
2023/08/17 04:47:05;;;;;;;0.50;0.50;;;14.80;99.90;;;;;;5049673;28;20576;-72
2023/08/17 04:49:31;;;;;;;0.50;0.50;;;14.80;99.90;;;;;;5051627;28;20267;-72
2023/08/17 04:51:57;;;;;;;0.40;0.40;;;14.80;99.90;;;;;;5050743;28;20267;-72
2023/08/17 04:54:22;;;;;;;0.60;0.60;;;14.80;99.90;;;;;;5051408;28;20193;-71
2023/08/17 04:56:48;;;;;;;0.40;0.40;;;14.80;99.90;;;;;;5051535;28;20193;-71
2023/08/17 04:59:14;;;;;;;0.40;0.40;;;14.80;99.90;;;;;;5066124;28;20200;-72
2023/08/17 05:01:40;;;;;;;0.68;0.68;;;14.90;99.90;;;;;;5071698;28;20397;-71
2023/08/17 05:04:06;;;;;;;5.15;1.60;;;14.90;99.90;;;;;;5071485;28;20780;-74
2023/08/17 05:06:31;;;;;;;0.50;0.50;;;15.00;99.90;;;;;;5071297;28;20666;-74
2023/08/17 05:08:58;;;;;;;0.93;0.50;;;15.00;99.90;;;;;;5071904;28;20203;-74
2023/08/17 05:11:24;;;;;;;0.32;0.32;;;15.00;99.90;;;;;;5071547;28;20595;-74
2023/08/17 05:13:50;;;;;;;0.30;0.30;;;15.00;99.90;;;;;;5071521;28;20209;-74
2023/08/17 05:16:16;;;;;;;0.35;0.35;;;15.10;99.90;;;;;;5053648;28;20199;-74
2023/08/17 05:18:41;;;;;;;0.73;0.52;;;15.20;99.90;;;;;;5071801;28;20200;-74
2023/08/17 05:21:07;;;;;;;1.85;0.70;;;15.20;99.90;;;;;;5061714;28;20729;-74
2023/08/17 05:23:33;;;;;;;0.57;0.57;;;15.30;99.90;;;;;;5051573;28;20201;-74
2023/08/17 05:25:59;;;;;;;0.30;0.30;;;15.30;99.90;;;;;;5051400;28;20202;-74
2023/08/17 05:28:27;;;;;;;0.55;0.50;;;15.30;99.90;;;;;;5051596;28;20558;-74
2023/08/17 05:30:53;;;;;;;0.30;0.30;;;15.40;99.90;;;;;;5033657;28;20281;-74
2023/08/17 05:33:19;;;;;;;0.40;0.40;;;15.40;99.90;;;;;;5050848;28;20224;-74
2023/08/17 05:35:45;;;;;;;0.30;0.30;;;15.60;99.90;;;;;;5051787;28;20186;-74
2023/08/17 05:38:10;;;;;;;0.40;0.40;;;15.80;99.90;;;;;;5051431;28;20185;-74
2023/08/17 05:40:36;;;;;;;2.83;1.67;;;15.90;99.90;;;;;;5051266;28;20323;-74
2023/08/17 05:43:02;;;;;;;0.40;0.40;;;15.90;99.90;;;;;;5051400;28;20201;-74
2023/08/17 05:45:28;;;;;;;0.47;0.47;;;15.90;99.90;;;;;;5054160;28;20569;-74
2023/08/17 05:47:53;;;;;;;0.30;0.30;;;15.90;99.90;;;;;;5037052;28;20239;-74
2023/08/17 05:50:19;;;;;;;0.50;0.50;;;16.00;99.90;;;;;;5054832;28;20197;-74
2023/08/17 05:52:45;;;;;;;0.50;0.50;;;16.00;99.90;;;;;;5055419;28;20201;-74
2023/08/17 05:55:11;;;;;;;0.30;0.30;;;16.10;99.90;;;;;;5055077;28;20690;-74
2023/08/17 05:57:37;;;;;;;0.40;0.40;;;16.10;99.90;;;;;;5053703;28;20281;-73
2023/08/17 06:00:03;;;;;;;0.30;0.30;;;16.20;99.90;;;;;;5055533;28;20670;-74
2023/08/17 06:02:28;;;;;;;0.30;0.30;;;16.30;99.90;;;;;;5054917;28;20561;-74
2023/08/17 06:04:54;;;;;;;0.30;0.30;;;16.40;99.90;;;;;;5055056;28;20243;-74
2023/08/17 06:07:23;;;;;;;0.40;0.40;;;16.40;99.90;;;;;;5054712;28;20267;-74
2023/08/17 06:09:48;;;;;;;0.30;0.30;;;16.60;99.90;;;;;;5053788;28;20201;-74
2023/08/17 06:12:14;;;;;;;1.10;0.77;;;16.90;99.90;;;;;;5053658;28;20216;-75
2023/08/17 06:14:41;;;;;;;0.30;0.30;;;17.20;99.90;;;;;;5053586;28;20194;-74
2023/08/17 06:17:07;;;;;;;0.35;0.35;;;17.30;99.90;;;;;;5054653;28;20205;-74
2023/08/17 06:19:33;;;;;;;0.40;0.40;;;17.30;99.90;;;;;;5054626;28;20234;-74
2023/08/17 06:21:59;;;;;;;0.52;0.52;;;17.50;99.90;;;;;;5038068;28;20279;-74
2023/08/17 06:24:24;;;;;;;0.30;0.30;;;17.60;99.90;;;;;;5034481;28;20194;-73
2023/08/17 06:26:50;;;;;;;0.35;0.35;;;17.60;99.90;;;;;;5033431;28;20202;-74
2023/08/17 06:29:16;;;;;;;0.30;0.30;;;17.60;99.90;;;;;;5047750;28;20233;-75
2023/08/17 06:31:41;;;;;;;0.40;0.40;;;17.60;99.90;;;;;;5036811;28;20213;-74
2023/08/17 06:34:07;;;;;;;0.43;0.43;;;17.50;99.90;;;;;;5054367;28;20286;-74
2023/08/17 06:36:33;;;;;;;0.40;0.40;;;17.50;99.90;;;;;;5054452;28;20196;-74
2023/08/17 06:38:59;;;;;;;0.40;0.40;;;17.60;99.90;;;;;;5053299;28;20212;-73
2023/08/17 06:41:25;;;;;;;0.30;0.30;;;17.80;99.90;;;;;;5054161;28;20194;-74
2023/08/17 06:43:51;;;;;;;0.30;0.30;;;17.80;99.90;;;;;;5054461;28;20186;-74
2023/08/17 06:46:17;;;;;;;0.38;0.38;;;18.00;99.90;;;;;;5036171;28;20197;-73
2023/08/17 06:48:43;;;;;;;0.30;0.30;;;18.00;99.90;;;;;;5053194;28;20247;-74
2023/08/17 06:51:09;;;;;;;0.28;0.28;;;18.10;99.90;;;;;;5063456;28;20250;-74
2023/08/17 06:53:35;;;;;;;0.30;0.30;;;18.10;99.90;;;;;;5074258;28;20620;-71
2023/08/17 06:56:01;;;;;;;0.20;0.20;;;18.10;99.90;;;;;;5070760;28;20544;-72
2023/08/17 06:58:26;;;;;;;0.20;0.20;;;18.10;99.90;;;;;;5035235;28;20251;-71
2023/08/17 07:00:52;;;;;;;0.30;0.30;;;18.10;99.90;;;;;;5053926;28;20192;-70
2023/08/17 07:03:18;;;;;;;0.30;0.30;;;18.00;99.90;;;;;;5053921;28;20638;-71
2023/08/17 07:05:44;;;;;;;0.38;0.38;;;18.00;99.90;;;;;;5034604;28;20233;-72
2023/08/17 07:08:10;;;;;;;0.30;0.30;;;17.90;99.90;;;;;;5033794;28;20198;-71
2023/08/17 07:10:36;;;;;;;0.32;0.32;;;17.90;99.90;;;;;;5015705;28;20198;-71
2023/08/17 07:13:03;;;;;;;0.30;0.30;;;18.10;99.90;;;;;;5033814;28;20696;-71
2023/08/17 07:15:30;;;;;;;0.35;0.35;;;18.30;99.90;;;;;;5034052;28;20186;-71
2023/08/17 07:17:55;;;;;;;0.30;0.30;;;18.20;99.90;;;;;;5033687;28;20653;-71
2023/08/17 07:20:21;;;;;;;0.43;0.43;;;18.20;99.90;;;;;;5033304;28;20190;-72
2023/08/17 07:22:47;;;;;;;0.25;0.25;;;18.30;99.90;;;;;;5033623;28;20221;-72
2023/08/17 07:25:13;;;;;;;0.20;0.20;;;18.50;99.90;;;;;;5033576;28;20198;-75
2023/08/17 07:27:38;;;;;;;0.45;0.45;;;18.60;99.90;;;;;;5033636;28;20287;-74
2023/08/17 07:30:05;;;;;;;0.25;0.25;;;18.80;99.90;;;;;;5033381;28;20194;-74
2023/08/17 07:32:32;;;;;;;0.20;0.20;;;18.80;99.90;;;;;;5033577;28;20611;-74
2023/08/17 07:34:58;;;;;;;0.20;0.20;;;18.80;99.90;;;;;;5033546;28;20645;-75
2023/08/17 07:37:23;;;;;;;0.30;0.30;;;18.80;99.90;;;;;;5033730;28;20273;-75
2023/08/17 07:39:49;;;;;;;0.40;0.40;;;19.00;99.90;;;;;;5033517;28;20202;-74
2023/08/17 07:42:15;;;;;;;0.40;0.40;;;19.10;99.90;;;;;;5033574;28;20198;-74
2023/08/17 07:44:41;;;;;;;1.27;1.15;;;19.20;99.90;;;;;;5033267;28;20244;-74
2023/08/17 07:47:07;;;;;;;0.20;0.20;;;19.20;99.90;;;;;;5040545;28;20652;-75
2023/08/17 07:49:33;;;;;;;0.30;0.30;;;19.40;99.90;;;;;;5035696;28;20208;-74
2023/08/17 07:51:59;;;;;;;0.20;0.20;;;19.60;99.90;;;;;;5053193;28;20560;-74
2023/08/17 07:54:25;;;;;;;0.30;0.30;;;19.80;99.90;;;;;;5052759;28;20649;-74
2023/08/17 07:56:50;;;;;;;0.20;0.20;;;19.70;99.90;;;;;;5053178;28;20273;-74
2023/08/17 07:59:16;;;;;;;0.30;0.30;;;19.60;99.90;;;;;;5053157;28;20197;-74
2023/08/17 08:01:42;;;;;;;0.20;0.20;;;19.50;99.90;;;;;;5052831;28;20259;-74
2023/08/17 08:04:07;;;;;;;0.30;0.30;;;19.40;99.90;;;;;;5056978;28;20236;-71
2023/08/17 08:06:33;;;;;;;0.40;0.40;;;19.40;99.90;;;;;;5059296;28;20201;-70
2023/08/17 08:08:59;;;;;;;0.40;0.40;;;19.50;99.90;;;;;;5052518;28;20194;-71
2023/08/17 08:11:27;;;;;;;0.20;0.20;;;19.70;99.90;;;;;;5052758;28;20724;-70
2023/08/17 08:13:53;;;;;;;0.30;0.30;;;19.70;99.90;;;;;;5052432;28;20185;-71
2023/08/17 08:16:18;;;;;;;0.35;0.35;;;19.70;99.90;;;;;;5052319;28;20200;-71
2023/08/17 08:18:44;;;;;;;0.20;0.20;;;19.90;99.90;;;;;;5052891;28;20217;-70
2023/08/17 08:21:10;;;;;;;0.20;0.20;;;19.90;99.90;;;;;;5051861;28;20282;-70
2023/08/17 08:23:36;;;;;;;0.20;0.20;;;20.30;99.90;;;;;;5034166;28;20255;-70
2023/08/17 08:26:02;;;;;;;0.20;0.20;;;20.50;99.90;;;;;;5034369;28;20616;-71
2023/08/17 08:28:28;;;;;;;0.20;0.20;;;20.50;99.90;;;;;;5052297;28;20228;-71
2023/08/17 08:30:53;;;;;;;2.63;0.50;;;20.80;99.90;;;;;;5052307;28;20205;-70
2023/08/17 08:33:19;;;;;;;0.20;0.20;;;20.90;99.90;;;;;;5050789;28;20777;-74
2023/08/17 08:35:46;;;;;;;0.20;0.20;;;21.00;99.90;;;;;;5052514;28;20586;-74
2023/08/17 08:38:11;;;;;;;0.13;0.13;;;21.20;99.90;;;;;;5052487;28;20190;-75
2023/08/17 08:40:40;;;;;;;0.20;0.20;;;21.70;99.90;;;;;;5051950;28;20251;-75
2023/08/17 08:43:09;;;;;;;0.20;0.20;;;22.00;99.90;;;;;;5056689;28;20475;-75
2023/08/17 08:45:36;;;;;;;0.20;0.20;;;22.30;99.90;;;;;;5072027;28;20551;-75
2023/08/17 08:48:03;;;;;;;0.20;0.20;;;22.60;99.90;;;;;;5071948;28;20565;-75
2023/08/17 08:50:32;;;;;;;0.20;0.20;;;22.30;99.90;;;;;;5071752;28;20211;-75
2023/08/17 08:53:03;;;;;;;0.20;0.20;;;22.00;99.90;;;;;;5071920;28;20208;-75
2023/08/17 08:55:38;;;;;;;0.20;0.20;;;21.80;99.90;;;;;;5071876;28;20208;-75
2023/08/17 08:58:05;;;;;;;0.15;0.15;;;21.70;99.90;;;;;;5071643;28;20194;-74
2023/08/17 09:00:33;;;;;;;0.30;0.30;;;21.50;99.90;;;;;;5070480;28;20193;-74
2023/08/17 09:03:01;;;;;;;0.20;0.20;;;21.60;99.90;;;;;;5058359;28;20275;-74
2023/08/17 09:05:27;;;;;;;0.25;0.25;;;21.80;99.90;;;;;;5051296;28;20710;-75
2023/08/17 09:07:54;;;;;;;0.20;0.20;;;21.90;99.90;;;;;;5051368;28;20202;-74
2023/08/17 09:10:20;;;;;;;0.20;0.20;;;22.10;99.90;;;;;;5050049;28;20228;-74
2023/08/17 09:12:47;;;;;;;0.22;0.22;;;22.20;99.90;;;;;;5050098;28;20209;-75
2023/08/17 09:15:13;;;;;;;0.20;0.20;;;22.30;99.90;;;;;;5051507;28;20196;-71
2023/08/17 09:17:39;;;;;;;0.20;0.20;;;22.10;99.90;;;;;;5051277;28;20201;-70
2023/08/17 09:20:07;;;;;;;0.28;0.28;;;22.10;99.90;;;;;;5048946;28;20656;-70
2023/08/17 09:22:43;;;;;;;0.28;0.28;;;22.20;99.90;;;;;;5051183;28;20631;-70
2023/08/17 09:25:10;;;;;;;0.20;0.20;;;22.60;99.90;;;;;;5051757;28;20652;-71
2023/08/17 09:27:37;;;;;;;0.20;0.20;;;22.70;99.90;;;;;;5049894;28;20290;-71
2023/08/17 09:30:16;;;;;;;0.45;0.30;;;22.70;99.90;;;;;;5051291;28;20202;-71
2023/08/17 09:32:42;;;;;;;0.20;0.20;;;22.90;99.90;;;;;;5049950;28;20213;-70
2023/08/17 09:35:09;;;;;;;0.20;0.20;;;23.20;99.90;;;;;;5050332;28;20189;-71
2023/08/17 09:37:34;;;;;;;0.20;0.20;;;23.70;99.90;;;;;;5051167;28;20206;-70
2023/08/17 09:40:01;;;;;;;0.13;0.13;;;24.40;99.90;;;;;;5061283;28;20273;-72
2023/08/17 09:42:27;;;;;;;0.10;0.10;;;24.90;99.90;;;;;;5071247;28;20193;-71
2023/08/17 09:44:55;;;;;;;0.20;0.20;;;24.70;99.90;;;;;;5071431;28;20185;-76
2023/08/17 09:47:22;;;;;;;0.10;0.10;;;25.00;99.90;;;;;;5071221;28;20257;-76
2023/08/17 09:49:52;;;;;;;0.10;0.10;;;25.00;99.90;;;;;;5071369;28;20220;-75
2023/08/17 09:52:19;;;;;;;0.20;0.20;;;25.20;99.90;;;;;;5071147;28;20200;-75
2023/08/17 09:54:47;;;;;;;0.20;0.20;;;25.40;99.90;;;;;;5070010;28;20246;-75
2023/08/17 09:57:13;;;;;;;0.10;0.10;;;25.40;99.90;;;;;;5053323;28;20192;-75
2023/08/17 09:59:39;;;;;;;0.22;0.22;;;25.60;99.90;;;;;;5070892;28;20268;-76
2023/08/17 10:02:18;;;;;;;0.28;0.22;;;25.10;99.90;;;;;;5071207;28;20785;-75
2023/08/17 10:04:50;;;;;;;0.20;0.20;;;25.00;99.90;;;;;;5069800;28;20232;-75
2023/08/17 10:07:19;;;;;;;0.43;0.43;;;25.10;99.90;;;;;;5070983;28;20690;-76
2023/08/17 10:09:52;;;;;;;0.20;0.20;;;25.00;99.90;;;;;;5071392;28;20793;-75
2023/08/17 10:12:19;;;;;;;0.10;0.10;;;25.10;99.90;;;;;;5070862;28;20259;-75
2023/08/17 10:15:10;;;;;;;0.10;0.10;;;24.90;99.90;;;;;;5035532;28;20656;-76
2023/08/17 10:17:47;;;;;;;0.10;0.10;;;24.80;99.90;;;;;;5051069;28;20190;-75
2023/08/17 10:20:14;;;;;;;0.13;0.13;;;25.30;99.90;;;;;;5050814;28;20198;-75
2023/08/17 10:22:44;;;;;;;0.10;0.10;;;25.00;99.90;;;;;;5050076;28;20198;-76
2023/08/17 10:25:13;;;;;;;0.10;0.10;;;25.10;99.90;;;;;;5051279;28;20189;-76
2023/08/17 10:27:41;;;;;;;0.20;0.20;;;25.50;99.90;;;;;;5051295;28;20280;-76
2023/08/17 10:30:11;;;;;;;5.50;0.63;;;25.80;99.90;;;;;;5052147;28;20239;-77
2023/08/17 10:32:38;;;;;;;0.10;0.10;;;26.20;99.90;;;;;;5054048;28;20213;-76
2023/08/17 10:35:05;;;;;;;5.63;0.88;;;26.40;99.90;;;;;;5055291;28;20190;-75
2023/08/17 10:37:32;;;;;;;0.00;0.00;;;26.70;99.90;;;;;;5072579;28;20192;-77
2023/08/17 10:39:57;;;;;;;0.00;0.00;;;26.70;99.90;;;;;;5074041;28;20185;-76
2023/08/17 10:42:36;;;;;;;0.10;0.10;;;26.30;99.90;;;;;;5073768;28;20197;-76
2023/08/17 10:45:21;;;;;;;0.65;0.52;;;26.40;99.90;;;;;;5073816;28;20540;-76
2023/08/17 10:47:47;;;;;;;0.20;0.20;;;26.50;99.90;;;;;;5055845;28;20682;-75
2023/08/17 10:50:23;;;;;;;0.20;0.20;;;27.30;99.90;;;;;;5055894;28;20196;-75
2023/08/17 10:52:50;;;;;;;0.10;0.10;;;27.30;99.90;;;;;;5074025;28;20674;-75
2023/08/17 10:55:18;;;;;;;0.10;0.10;;;27.00;99.90;;;;;;5074380;28;20211;-75
2023/08/17 10:57:44;;;;;;;0.10;0.10;;;26.90;99.90;;;;;;5074721;28;20200;-75
2023/08/17 11:00:31;;;;;;;0.10;0.10;;;27.20;99.90;;;;;;5074486;28;20259;-75
2023/08/17 11:03:05;;;;;;;0.10;0.10;;;27.50;99.90;;;;;;5073985;28;20192;-75
2023/08/17 11:05:48;;;;;;;0.20;0.20;;;27.50;99.90;;;;;;5073453;28;20236;-75
2023/08/17 11:08:22;;;;;;;0.20;0.20;;;27.00;99.90;;;;;;5073602;28;20207;-75
2023/08/17 11:10:58;;;;;;;0.15;0.15;;;26.60;99.90;;;;;;5039085;28;20197;-75
2023/08/17 11:13:27;;;;;;;0.10;0.10;;;26.30;99.90;;;;;;5035356;28;20232;-77
2023/08/17 11:15:53;;;;;;;0.20;0.20;;;26.20;99.90;;;;;;5035590;28;20194;-77
2023/08/17 11:18:18;;;;;;;0.10;0.10;;;26.00;99.90;;;;;;5053449;28;20227;-76
2023/08/17 11:20:44;;;;;;;0.10;0.10;;;26.30;99.90;;;;;;5053500;28;20235;-76
2023/08/17 11:23:11;;;;;;;0.10;0.10;;;26.50;99.90;;;;;;5053592;28;20198;-76
2023/08/17 11:25:37;;;;;;;0.10;0.10;;;26.40;99.90;;;;;;5053368;28;20205;-76
2023/08/17 11:28:05;;;;;;;0.10;0.10;;;26.30;99.90;;;;;;5051485;28;20201;-76
2023/08/17 11:30:33;;;;;;;0.10;0.10;;;26.10;99.90;;;;;;5032027;28;20197;-76
2023/08/17 11:33:00;;;;;;;0.20;0.20;;;26.00;99.90;;;;;;5062413;28;20209;-75
2023/08/17 11:35:26;;;;;;;0.20;0.20;;;25.60;99.90;;;;;;5073251;28;20189;-72
2023/08/17 11:37:52;;;;;;;0.10;0.10;;;25.80;99.90;;;;;;5073122;28;20192;-71
2023/08/17 11:40:18;;;;;;;0.45;0.40;;;26.40;99.90;;;;;;5073165;28;20620;-71
2023/08/17 11:42:44;;;;;;;0.10;0.10;;;26.30;99.90;;;;;;5072314;28;20655;-72
2023/08/17 11:45:10;;;;;;;0.10;0.10;;;26.30;99.90;;;;;;5073397;28;20197;-71
2023/08/17 11:47:41;;;;;;;0.10;0.10;;;26.20;99.90;;;;;;5072876;28;20200;-71
2023/08/17 11:50:12;;;;;;;0.20;0.17;;;26.30;99.90;;;;;;5072893;28;20203;-71
2023/08/17 11:52:38;;;;;;;0.13;0.13;;;26.50;99.90;;;;;;5071772;28;20266;-71
2023/08/17 11:55:11;;;;;;;0.10;0.10;;;26.60;99.90;;;;;;5055191;28;20218;-72
2023/08/17 11:57:37;;;;;;;0.10;0.10;;;26.90;99.90;;;;;;5071592;28;20303;-71
2023/08/17 12:00:09;;;;;;;0.10;0.10;;;26.80;99.90;;;;;;5073225;28;20212;-71
2023/08/17 12:02:37;;;;;;;0.28;0.28;;;26.60;99.90;;;;;;5072607;28;20276;-71
2023/08/17 12:05:06;;;;;;;0.20;0.20;;;26.90;99.90;;;;;;5072722;28;20240;-74
2023/08/17 12:07:32;;;;;;;0.15;0.13;;;27.00;99.90;;;;;;5053456;28;20216;-74
2023/08/17 12:10:01;;;;;;;0.20;0.20;;;26.80;99.90;;;;;;5053784;28;20197;-74
2023/08/17 12:12:28;;;;;;;0.15;0.15;;;26.30;99.90;;;;;;5053150;28;20205;-74
2023/08/17 12:14:54;;;;;;;0.30;0.20;;;25.90;99.90;;;;;;5053182;28;20250;-74
2023/08/17 12:17:24;;;;;;;0.17;0.17;;;25.20;99.90;;;;;;5052817;28;20197;-74
2023/08/17 12:19:54;;;;;;;0.10;0.10;;;25.00;99.90;;;;;;5053184;28;20186;-74
2023/08/17 12:22:23;;;;;;;0.20;0.20;;;25.50;99.90;;;;;;5052679;28;20864;-74
2023/08/17 12:24:48;;;;;;;0.10;0.10;;;25.80;99.90;;;;;;5046653;28;20229;-74
2023/08/17 12:27:14;;;;;;;0.20;0.20;;;26.40;99.90;;;;;;5032552;28;20194;-74
2023/08/17 12:29:48;;;;;;;0.15;0.15;;;26.50;99.90;;;;;;5050486;28;20208;-74
2023/08/17 12:32:15;;;;;;;0.00;0.00;;;26.10;99.90;;;;;;5034416;28;20235;-73
2023/08/17 12:34:41;;;;;;;0.10;0.10;;;25.60;99.90;;;;;;5052236;28;20293;-74
2023/08/17 12:37:11;;;;;;;0.10;0.10;;;25.30;99.90;;;;;;5052248;28;20197;-74
2023/08/17 12:39:37;;;;;;;0.20;0.20;;;25.10;99.90;;;;;;5052319;28;20190;-74
2023/08/17 12:42:04;;;;;;;0.10;0.10;;;24.60;99.90;;;;;;5034368;28;20300;-74
2023/08/17 12:44:29;;;;;;;0.10;0.10;;;24.20;99.90;;;;;;5052029;28;20193;-73
2023/08/17 12:46:55;;;;;;;0.15;0.15;;;24.10;99.90;;;;;;5052896;28;20196;-73
2023/08/17 12:49:21;;;;;;;0.20;0.20;;;24.20;99.90;;;;;;5051892;28;20712;-72
2023/08/17 12:51:47;;;;;;;0.10;0.10;;;24.70;99.90;;;;;;5050832;28;20572;-73
2023/08/17 12:54:13;;;;;;;5.97;0.55;;;25.60;99.90;;;;;;5051866;28;20268;-73